createdAt,value
2022-09-07T00:02:19.737Z,101222.69
2022-09-07T00:04:46.324Z,101217.97
2022-09-07T00:07:12.973Z,101237.56
2022-09-07T00:09:39.845Z,101234.03
2022-09-07T00:12:06.394Z,101224.13
2022-09-07T00:14:33.859Z,101220.56
2022-09-07T00:17:00.331Z,101220.56
2022-09-07T00:19:26.873Z,101226.06
2022-09-07T00:21:53.343Z,101233.22
2022-09-07T00:24:20.151Z,101224.13
2022-09-07T00:26:46.795Z,101218.94
2022-09-07T00:29:13.343Z,101214.59
2022-09-07T00:31:39.924Z,101225.59
2022-09-07T00:34:06.571Z,101240.47
2022-09-07T00:36:33.083Z,101240.47
2022-09-07T00:38:59.847Z,101242.41
2022-09-07T00:41:26.463Z,101236.44
2022-09-07T00:43:58.666Z,101241.13
2022-09-07T00:46:32.341Z,101242.75
2022-09-07T00:49:08.134Z,101239.19
2022-09-07T00:51:46.234Z,101246.63
2022-09-07T00:54:22.568Z,101257.94
2022-09-07T00:56:52.761Z,101270.59
2022-09-07T00:59:21.779Z,101261.50
2022-09-07T01:01:48.727Z,101268.94
2022-09-07T01:04:15.977Z,101277.19
2022-09-07T01:06:43.585Z,101286.59
2022-09-07T01:09:20.584Z,101292.91
2022-09-07T01:11:51.104Z,101294.03
2022-09-07T01:14:28.003Z,101297.94
2022-09-07T01:17:39.486Z,101293.53
2022-09-07T01:20:49.552Z,101289.16
2022-09-07T01:23:43.638Z,101287.22
2022-09-07T01:26:48.011Z,101276.22
2022-09-07T01:29:17.959Z,101269.91
2022-09-07T01:31:56.312Z,101274.94
2022-09-07T01:34:25.813Z,101278.50
2022-09-07T01:37:21.722Z,101274.09
2022-09-07T01:40:00.819Z,101267.78
2022-09-07T01:42:33.917Z,101257.91
2022-09-07T01:45:02.215Z,101259.53
2022-09-07T01:47:33.386Z,101257.91
2022-09-07T01:50:10.659Z,101257.13
2022-09-07T01:53:01.230Z,101262.63
2022-09-07T01:55:35.209Z,101266.50
2022-09-07T01:58:10.691Z,101279.41
2022-09-07T02:00:40.492Z,101271.16
2022-09-07T02:03:45.990Z,101273.91
2022-09-07T02:06:24.707Z,101279.75
2022-09-07T02:09:00.884Z,101277.81
2022-09-07T02:11:37.987Z,101271.50
2022-09-07T02:14:27.913Z,101271.81
2022-09-07T02:17:12.284Z,101262.44
2022-09-07T02:19:45.255Z,101252.88
2022-09-07T02:22:16.827Z,101255.63
2022-09-07T02:24:49.914Z,101256.44
2022-09-07T02:27:24.846Z,101261.13
2022-09-07T02:29:52.221Z,101265.81
2022-09-07T02:32:19.140Z,101265.81
2022-09-07T02:34:46.320Z,101269.38
2022-09-07T02:37:16.724Z,101254.00
2022-09-07T02:39:43.359Z,101254.34
2022-09-07T02:42:09.942Z,101257.91
2022-09-07T02:44:40.603Z,101260.66
2022-09-07T02:47:19.154Z,101260.66
2022-09-07T02:49:54.754Z,101260.94
2022-09-07T02:52:31.376Z,101262.88
2022-09-07T02:55:09.600Z,101266.44
2022-09-07T02:57:46.814Z,101262.38
2022-09-07T03:00:18.002Z,101256.88
2022-09-07T03:03:20.812Z,101252.19
2022-09-07T03:05:47.250Z,101242.28
2022-09-07T03:08:32.215Z,101231.63
2022-09-07T03:10:59.300Z,101229.69
2022-09-07T03:13:28.567Z,101232.44
2022-09-07T03:15:56.579Z,101233.56
2022-09-07T03:18:24.781Z,101232.75
2022-09-07T03:20:51.520Z,101226.44
2022-09-07T03:23:18.533Z,101230.31
2022-09-07T03:25:45.356Z,101232.59
2022-09-07T03:28:12.075Z,101241.63
2022-09-07T03:30:44.098Z,101231.78
2022-09-07T03:33:10.766Z,101237.09
2022-09-07T03:35:37.265Z,101240.31
2022-09-07T03:40:42.574Z,101230.63
2022-09-07T03:43:09.104Z,101235.28
2022-09-07T03:45:35.630Z,101235.59
2022-09-07T03:48:02.283Z,101241.59
2022-09-07T03:50:29.314Z,101248.22
2022-09-07T03:52:55.986Z,101246.94
2022-09-07T03:55:22.507Z,101246.94
2022-09-07T03:57:49.026Z,101252.91
2022-09-07T04:00:16.207Z,101250.78
2022-09-07T04:02:42.784Z,101263.25
2022-09-07T04:05:09.415Z,101255.00
2022-09-07T04:07:36.120Z,101246.75
2022-09-07T04:10:02.880Z,101240.44
2022-09-07T04:12:29.398Z,101240.75
2022-09-07T04:14:55.906Z,101239.13
2022-09-07T04:17:22.436Z,101252.06
2022-09-07T04:19:49.034Z,101244.97
2022-09-07T04:22:15.560Z,101238.63
2022-09-07T04:24:42.220Z,101239.75
2022-09-07T04:27:08.719Z,101238.63
2022-09-07T04:29:35.281Z,101236.53
2022-09-07T04:32:02.359Z,101238.94
2022-09-07T04:34:28.901Z,101236.19
2022-09-07T04:36:55.400Z,101231.84
2022-09-07T04:39:21.886Z,101232.13
2022-09-07T04:41:48.380Z,101225.03
2022-09-07T04:44:16.926Z,101237.16
2022-09-07T04:46:43.843Z,101231.34
2022-09-07T04:49:11.957Z,101228.09
2022-09-07T04:51:39.738Z,101228.09
2022-09-07T04:54:07.081Z,101230.00
2022-09-07T04:56:34.175Z,101224.84
2022-09-07T04:59:01.893Z,101218.53
2022-09-07T05:01:29.328Z,101223.22
2022-09-07T05:03:55.901Z,101229.03
2022-09-07T05:06:23.253Z,101222.72
2022-09-07T05:08:52.329Z,101213.66
2022-09-07T05:11:22.862Z,101222.25
2022-09-07T05:13:51.953Z,101216.75
2022-09-07T05:16:21.536Z,101214.28
2022-09-07T05:18:52.396Z,101215.94
2022-09-07T05:21:21.984Z,101216.22
2022-09-07T05:23:53.406Z,101220.94
2022-09-07T05:26:22.624Z,101217.38
2022-09-07T05:28:50.429Z,101214.63
2022-09-07T05:31:19.652Z,101211.06
2022-09-07T05:36:36.150Z,101218.00
2022-09-07T05:39:03.584Z,101218.31
2022-09-07T05:41:30.496Z,101223.81
2022-09-07T05:46:43.941Z,101219.75
2022-09-07T05:49:10.536Z,101225.56
2022-09-07T05:51:39.954Z,101227.50
2022-09-07T05:54:06.858Z,101229.94
2022-09-07T05:56:36.597Z,101228.31
2022-09-07T05:59:03.697Z,101231.38
2022-09-07T06:01:30.838Z,101235.25
2022-09-07T06:03:57.767Z,101231.69
2022-09-07T06:06:24.424Z,101237.50
2022-09-07T06:08:54.202Z,101242.69
2022-09-07T06:11:22.370Z,101241.03
2022-09-07T06:13:49.456Z,101233.94
2022-09-07T06:16:17.620Z,101241.03
2022-09-07T06:18:46.391Z,101248.00
2022-09-07T06:21:23.600Z,101248.81
2022-09-07T06:23:51.426Z,101253.75
2022-09-07T06:26:19.702Z,101248.25
2022-09-07T06:28:49.840Z,101253.75
2022-09-07T06:31:22.728Z,101254.41
2022-09-07T06:33:49.847Z,101257.97
2022-09-07T06:36:17.479Z,101263.47
2022-09-07T06:38:44.586Z,101263.13
2022-09-07T06:44:08.991Z,101272.81
2022-09-07T06:49:23.676Z,101283.00
2022-09-07T06:51:50.718Z,101275.88
2022-09-07T06:57:09.249Z,101271.53
2022-09-07T06:59:36.833Z,101275.41
2022-09-07T07:02:04.324Z,101275.41
2022-09-07T07:04:30.889Z,101278.16
2022-09-07T07:06:57.467Z,101273.75
2022-09-07T07:09:23.977Z,101274.56
2022-09-07T07:11:50.480Z,101276.22
2022-09-07T07:14:18.202Z,101277.63
2022-09-07T07:16:44.837Z,101285.88
2022-09-07T07:19:11.577Z,101283.94
2022-09-07T07:22:03.585Z,101294.94
2022-09-07T07:24:24.645Z,101302.38
2022-09-07T07:26:51.261Z,101303.50
2022-09-07T07:29:18.928Z,101297.19
2022-09-07T07:31:46.968Z,101299.09
2022-09-07T07:34:13.630Z,101301.84
2022-09-07T07:36:40.198Z,101298.28
2022-09-07T07:39:06.798Z,101305.44
2022-09-07T07:44:20.786Z,101304.59
2022-09-07T07:46:49.176Z,101307.66
2022-09-07T07:49:16.048Z,101304.13
2022-09-07T07:54:29.286Z,101308.81
2022-09-07T07:56:55.762Z,101304.41
2022-09-07T07:59:22.289Z,101297.28
2022-09-07T08:01:49.163Z,101297.28
2022-09-07T08:04:15.729Z,101298.09
2022-09-07T08:06:43.143Z,101286.31
2022-09-07T08:09:11.101Z,101283.56
2022-09-07T08:11:40.095Z,101280.31
2022-09-07T08:14:08.615Z,101278.06
2022-09-07T08:16:36.303Z,101281.94
2022-09-07T08:19:03.424Z,101295.69
2022-09-07T08:21:29.912Z,101293.75
2022-09-07T08:23:56.688Z,101281.94
2022-09-07T08:26:23.147Z,101280.00
2022-09-07T08:28:49.661Z,101278.06
2022-09-07T08:31:17.411Z,101283.06
2022-09-07T08:33:44.369Z,101280.63
2022-09-07T08:36:16.486Z,101276.78
2022-09-07T08:38:43.014Z,101275.13
2022-09-07T08:41:28.164Z,101284.19
2022-09-07T08:44:32.003Z,101269.63
2022-09-07T08:47:23.209Z,101279.00
2022-09-07T08:50:04.524Z,101277.88
2022-09-07T08:52:36.820Z,101288.06
2022-09-07T08:55:19.011Z,101290.00
2022-09-07T08:57:53.927Z,101282.88
2022-09-07T09:00:20.539Z,101284.81
2022-09-07T09:03:28.644Z,101283.69
2022-09-07T09:05:48.750Z,101282.88
2022-09-07T09:08:18.410Z,101293.06
2022-09-07T09:10:59.092Z,101284.81
2022-09-07T09:13:47.255Z,101281.25
2022-09-07T09:16:23.700Z,101285.13
2022-09-07T09:19:29.122Z,101284.81
2022-09-07T09:22:09.427Z,101281.25
2022-09-07T09:24:39.981Z,101283.97
2022-09-07T09:27:06.459Z,101285.94
2022-09-07T09:29:33.533Z,101281.25
2022-09-07T09:32:00.027Z,101285.13
2022-09-07T09:34:29.456Z,101298.84
2022-09-07T09:36:57.836Z,101285.94
2022-09-07T09:39:26.148Z,101294.97
2022-09-07T09:41:54.325Z,101287.56
2022-09-07T09:44:21.708Z,101287.56
2022-09-07T09:47:29.456Z,101283.69
2022-09-07T09:49:40.600Z,101275.13
2022-09-07T09:52:41.741Z,101274.84
2022-09-07T09:55:30.640Z,101281.13
2022-09-07T10:04:00.889Z,101273.38
2022-09-07T10:06:29.511Z,101270.34
2022-09-07T10:08:58.694Z,101279.38
2022-09-07T10:14:45.110Z,101276.50
2022-09-07T10:17:31.136Z,101273.47
2022-09-07T10:20:22.263Z,101271.19
2022-09-07T10:22:51.685Z,101273.94
2022-09-07T10:25:41.897Z,101283.81
2022-09-07T10:28:14.355Z,101280.75
2022-09-07T10:31:15.253Z,101269.75
2022-09-07T10:36:59.828Z,101272.19
2022-09-07T10:39:32.617Z,101263.66
2022-09-07T10:42:12.712Z,101271.09
2022-09-07T10:45:02.348Z,101269.16
2022-09-07T10:47:46.858Z,101270.78
2022-09-07T10:50:42.617Z,101256.72
2022-09-07T10:54:29.952Z,101261.13
2022-09-07T10:57:09.655Z,101259.19
2022-09-07T11:00:10.319Z,101258.03
2022-09-07T11:02:40.302Z,101261.59
2022-09-07T11:05:16.254Z,101256.91
2022-09-07T11:07:42.649Z,101264.53
2022-09-07T11:10:21.321Z,101247.56
2022-09-07T11:15:42.474Z,101237.84
2022-09-07T11:18:18.652Z,101241.41
2022-09-07T11:20:56.589Z,101237.56
2022-09-07T11:23:52.311Z,101243.53
2022-09-07T11:26:30.046Z,101241.31
2022-09-07T11:29:31.776Z,101233.06
2022-09-07T11:32:01.150Z,101248.41
2022-09-07T11:34:38.463Z,101248.09
2022-09-07T11:37:18.916Z,101244.22
2022-09-07T11:39:52.729Z,101246.97
2022-09-07T11:45:35.189Z,101249.41
2022-09-07T11:48:10.510Z,101234.53
2022-09-07T11:50:43.402Z,101249.09
2022-09-07T11:53:18.305Z,101241.66
2022-09-07T11:55:50.324Z,101233.09
2022-09-07T11:58:35.290Z,101236.66
2022-09-07T12:01:16.332Z,101234.69
2022-09-07T12:03:57.127Z,101238.25
2022-09-07T12:06:41.684Z,101234.41
2022-09-07T12:09:21.184Z,101245.88
2022-09-07T12:12:02.906Z,101237.63
2022-09-07T12:14:35.848Z,101241.19
2022-09-07T12:17:08.443Z,101245.25
2022-09-07T12:19:35.247Z,101243.66
2022-09-07T12:22:02.058Z,101246.38
2022-09-07T12:24:41.058Z,101245.25
2022-09-07T12:27:19.718Z,101242.50
2022-09-07T12:29:58.450Z,101237.81
2022-09-07T12:32:54.521Z,101242.50
2022-09-07T12:35:28.203Z,101236.72
2022-09-07T12:37:57.706Z,101245.75
2022-09-07T12:40:27.326Z,101230.06
2022-09-07T12:43:12.438Z,101226.53
2022-09-07T12:45:38.889Z,101230.06
2022-09-07T12:48:23.424Z,101217.13
2022-09-07T12:51:04.503Z,101221.50
2022-09-07T12:53:48.016Z,101225.84
2022-09-07T12:56:38.963Z,101210.19
2022-09-07T12:59:23.537Z,101202.75
2022-09-07T13:01:53.006Z,101208.72
2022-09-07T13:04:52.569Z,101203.56
2022-09-07T13:07:40.719Z,101215.03
2022-09-07T13:10:26.551Z,101204.03
2022-09-07T13:12:59.669Z,101195.50
2022-09-07T13:15:41.522Z,101188.03
2022-09-07T13:18:31.440Z,101192.41
2022-09-07T13:21:06.927Z,101186.63
2022-09-07T13:23:40.482Z,101177.22
2022-09-07T13:26:10.664Z,101185.94
2022-09-07T13:28:50.737Z,101200.53
2022-09-07T13:31:24.081Z,101185.66
2022-09-07T13:33:51.981Z,101186.47
2022-09-07T13:36:40.454Z,101175.47
2022-09-07T13:39:15.379Z,101177.88
2022-09-07T13:41:48.202Z,101179.81
2022-09-07T13:44:25.225Z,101172.38
2022-09-07T13:46:58.120Z,101168.50
2022-09-07T13:49:36.821Z,101170.94
2022-09-07T13:52:09.025Z,101175.31
2022-09-07T13:54:41.293Z,101177.75
2022-09-07T13:57:19.862Z,101168.69
2022-09-07T13:59:50.297Z,101168.34
2022-09-07T14:02:24.749Z,101164.47
2022-09-07T14:04:54.876Z,101168.88
2022-09-07T14:07:26.534Z,101164.97
2022-09-07T14:10:20.020Z,101170.16
2022-09-07T14:12:49.147Z,101167.41
2022-09-07T14:15:21.908Z,101163.88
2022-09-07T14:17:52.775Z,101166.63
2022-09-07T14:20:20.417Z,101165.47
2022-09-07T14:22:51.987Z,101156.94
2022-09-07T14:25:22.131Z,101158.53
2022-09-07T14:27:49.539Z,101156.94
2022-09-07T14:30:23.232Z,101149.16
2022-09-07T14:32:52.763Z,101161.47
2022-09-07T14:35:22.219Z,101157.91
2022-09-07T14:37:49.895Z,101160.66
2022-09-07T14:40:21.812Z,101150.44
2022-09-07T14:42:53.778Z,101155.16
2022-09-07T14:45:32.041Z,101152.06
2022-09-07T14:47:59.362Z,101146.91
2022-09-07T14:50:41.417Z,101156.75
2022-09-07T14:56:10.360Z,101152.88
2022-09-07T14:58:36.915Z,101130.06
2022-09-07T15:01:39.360Z,101133.63
2022-09-07T15:04:18.474Z,101136.88
2022-09-07T15:07:02.207Z,101138.47
2022-09-07T15:09:35.918Z,101136.22
2022-09-07T15:12:29.754Z,101140.13
2022-09-07T15:15:24.029Z,101137.03
2022-09-07T15:17:51.957Z,101130.72
2022-09-07T15:20:35.132Z,101125.22
2022-09-07T15:23:09.024Z,101127.16
2022-09-07T15:25:36.432Z,101124.09
2022-09-07T15:28:03.872Z,101124.09
2022-09-07T15:30:30.798Z,101114.22
2022-09-07T15:32:57.727Z,101111.47
2022-09-07T15:35:24.855Z,101121.34
2022-09-07T15:38:59.291Z,101118.59
2022-09-07T15:41:22.451Z,101107.25
2022-09-07T15:43:50.853Z,101112.75
2022-09-07T15:46:17.389Z,101121.50
2022-09-07T15:48:52.418Z,101104.50
2022-09-07T15:54:07.737Z,101109.34
2022-09-07T15:56:38.902Z,101109.84
2022-09-07T15:59:05.807Z,101101.91
2022-09-07T16:04:19.485Z,101107.09
2022-09-07T16:06:48.263Z,101102.41
2022-09-07T16:09:15.475Z,101110.66
2022-09-07T16:11:42.004Z,101108.72
2022-09-07T16:14:11.707Z,101104.81
2022-09-07T16:19:24.771Z,101097.38
2022-09-07T16:21:51.270Z,101087.19
2022-09-07T16:24:18.006Z,101092.38
2022-09-07T16:26:44.835Z,101086.06
2022-09-07T16:29:11.402Z,101093.19
2022-09-07T16:31:38.443Z,101095.13
2022-09-07T16:34:05.046Z,101086.88
2022-09-07T16:36:31.516Z,101085.72
2022-09-07T16:39:00.563Z,101086.22
2022-09-07T16:41:31.268Z,101081.88
2022-09-07T16:43:58.718Z,101083.47
2022-09-07T16:46:29.136Z,101075.22
2022-09-07T16:48:55.671Z,101075.22
2022-09-07T16:51:23.968Z,101087.84
2022-09-07T16:53:53.163Z,101074.06
2022-09-07T16:56:23.388Z,101078.44
2022-09-07T16:58:56.419Z,101075.69
2022-09-07T17:01:26.406Z,101074.56
2022-09-07T17:03:53.091Z,101078.44
2022-09-07T17:06:21.916Z,101072.94
2022-09-07T17:08:48.524Z,101080.09
2022-09-07T17:11:22.208Z,101070.19
2022-09-07T17:13:50.124Z,101070.19
2022-09-07T17:16:19.816Z,101075.69
2022-09-07T17:21:36.731Z,101078.44
2022-09-07T17:24:05.378Z,101077.16
2022-09-07T17:26:32.777Z,101076.03
2022-09-07T17:29:01.175Z,101068.91
2022-09-07T17:34:18.003Z,101063.72
2022-09-07T17:36:44.538Z,101066.47
2022-09-07T17:39:16.219Z,101066.47
2022-09-07T17:41:44.227Z,101073.91
2022-09-07T17:44:10.894Z,101066.00
2022-09-07T17:46:37.635Z,101055.00
2022-09-07T17:49:07.166Z,101055.28
2022-09-07T17:51:33.890Z,101054.19
2022-09-07T17:54:02.776Z,101052.53
2022-09-07T17:56:31.062Z,101051.44
2022-09-07T18:01:45.931Z,101046.22
2022-09-07T18:04:13.219Z,101056.44
2022-09-07T18:06:41.294Z,101050.13
2022-09-07T18:09:07.801Z,101057.56
2022-09-07T18:11:50.492Z,101054.03
2022-09-07T18:14:18.464Z,101048.81
2022-09-07T18:16:46.433Z,101054.31
2022-09-07T18:19:13.778Z,101053.53
2022-09-07T18:21:43.100Z,101054.31
2022-09-07T18:24:18.799Z,101052.72
2022-09-07T18:26:50.930Z,101059.03
2022-09-07T18:29:31.263Z,101056.28
2022-09-07T18:32:00.096Z,101056.59
2022-09-07T18:34:28.567Z,101057.72
2022-09-07T18:36:55.385Z,101036.84
2022-09-07T18:39:22.076Z,101048.66
2022-09-07T18:41:48.551Z,101041.56
2022-09-07T18:47:01.464Z,101028.59
2022-09-07T18:49:28.376Z,101027.78
2022-09-07T18:54:41.797Z,101038.31
2022-09-07T18:57:08.287Z,101047.38
2022-09-07T18:59:34.760Z,101039.44
2022-09-07T19:02:04.257Z,101044.63
2022-09-07T19:07:20.605Z,101054.84
2022-09-07T19:09:48.234Z,101040.59
2022-09-07T19:12:15.287Z,101041.09
2022-09-07T19:14:42.263Z,101042.53
2022-09-07T19:17:10.956Z,101042.53
2022-09-07T19:19:38.726Z,101048.84
2022-09-07T19:22:06.031Z,101048.03
2022-09-07T19:24:33.195Z,101048.34
2022-09-07T19:27:01.047Z,101046.41
2022-09-07T19:29:29.034Z,101048.03
2022-09-07T19:32:04.696Z,101032.66
2022-09-07T19:34:45.563Z,101038.47
2022-09-07T19:37:13.360Z,101049.47
2022-09-07T19:39:39.901Z,101066.78
2022-09-07T19:42:06.839Z,101075.03
2022-09-07T19:44:33.775Z,101087.19
2022-09-07T19:47:00.839Z,101074.56
2022-09-07T19:49:28.164Z,101072.63
2022-09-07T19:51:54.823Z,101069.06
2022-09-07T19:54:21.550Z,101072.94
2022-09-07T19:56:48.040Z,101068.25
2022-09-07T19:59:14.654Z,101067.13
2022-09-07T20:01:46.084Z,101060.31
2022-09-07T20:04:19.568Z,101061.13
2022-09-07T20:06:49.970Z,101063.88
2022-09-07T20:09:17.422Z,101055.63
2022-09-07T20:11:46.716Z,101058.69
2022-09-07T20:14:14.434Z,101053.19
2022-09-07T20:16:41.796Z,101053.19
2022-09-07T20:19:08.742Z,101039.44
2022-09-07T20:21:36.960Z,101038.66
2022-09-07T20:24:04.371Z,101035.91
2022-09-07T20:26:32.275Z,101042.19
2022-09-07T20:29:16.803Z,101036.69
2022-09-07T20:31:46.727Z,101026.03
2022-09-07T20:34:14.012Z,101027.31
2022-09-07T20:36:40.552Z,101029.25
2022-09-07T20:39:07.480Z,101022.59
2022-09-07T20:41:34.873Z,101030.06
2022-09-07T20:44:03.734Z,101018.25
2022-09-07T20:46:30.969Z,101014.69
2022-09-07T20:48:57.888Z,101011.13
2022-09-07T20:51:24.611Z,101012.75
2022-09-07T20:53:51.409Z,101007.25
2022-09-07T20:56:23.387Z,101008.38
2022-09-07T20:58:55.361Z,101012.75
2022-09-07T21:01:22.928Z,101022.13
2022-09-07T21:03:51.719Z,101014.69
2022-09-07T21:06:19.324Z,101011.13
2022-09-07T21:08:47.684Z,101005.63
2022-09-07T21:11:17.077Z,101011.13
2022-09-07T21:13:43.957Z,101002.88
2022-09-07T21:16:15.420Z,101012.28
2022-09-07T21:18:44.112Z,101013.09
2022-09-07T21:21:20.489Z,101015.84
2022-09-07T21:23:48.161Z,101010.63
2022-09-07T21:26:19.707Z,101012.28
2022-09-07T21:28:46.182Z,101012.59
2022-09-07T21:31:12.717Z,101011.44
2022-09-07T21:33:39.207Z,101013.38
2022-09-07T21:36:11.080Z,101016.13
2022-09-07T21:38:38.709Z,101004.34
2022-09-07T21:41:13.088Z,101009.03
2022-09-07T21:43:40.556Z,101009.03
2022-09-07T21:46:12.132Z,101005.44
2022-09-07T21:48:39.274Z,101008.19
2022-09-07T21:51:06.179Z,101008.19
2022-09-07T21:53:33.175Z,101004.63
2022-09-07T21:56:01.910Z,101001.09
2022-09-07T21:58:29.318Z,100997.50
2022-09-07T22:00:57.219Z,100996.69
2022-09-07T22:03:25.225Z,100993.13
2022-09-07T22:05:51.931Z,100993.94
2022-09-07T22:08:18.842Z,100990.38
2022-09-07T22:10:46.503Z,100993.13
2022-09-07T22:13:13.351Z,100997.84
2022-09-07T22:15:41.596Z,100977.78
2022-09-07T22:18:11.985Z,100981.34
2022-09-07T22:20:39.166Z,100991.53
2022-09-07T22:23:06.103Z,100979.72
2022-09-07T22:25:32.891Z,100989.09
2022-09-07T22:27:59.523Z,100976.47
2022-09-07T22:30:26.157Z,100965.16
2022-09-07T22:32:53.048Z,100966.28
2022-09-07T22:35:20.984Z,100967.09
2022-09-07T22:37:47.459Z,100965.47
2022-09-07T22:40:14.813Z,100956.41
2022-09-07T22:42:41.627Z,100964.66
2022-09-07T22:45:08.891Z,100950.13
2022-09-07T22:47:35.349Z,100963.06
2022-09-07T22:50:01.862Z,100955.94
2022-09-07T22:52:28.327Z,100955.94
2022-09-07T22:54:54.940Z,100957.88
2022-09-07T22:57:21.555Z,100965.81
2022-09-07T22:59:48.003Z,100963.38
2022-09-07T23:02:14.562Z,100958.69
2022-09-07T23:04:41.255Z,100959.00
2022-09-07T23:07:07.903Z,100959.81
2022-09-07T23:09:34.435Z,100953.50
2022-09-07T23:12:00.966Z,100943.66
2022-09-07T23:14:27.599Z,100937.00
2022-09-07T23:16:54.062Z,100934.59
2022-09-07T23:19:21.492Z,100931.84
2022-09-07T23:21:48.239Z,100923.59
2022-09-07T23:24:17.361Z,100926.34
2022-09-07T23:26:44.457Z,100923.91
2022-09-07T23:29:13.293Z,100910.16
2022-09-07T23:31:40.761Z,100913.69
2022-09-07T23:34:08.064Z,100903.03
2022-09-07T23:36:34.595Z,100902.72
2022-09-07T23:39:01.631Z,100896.41
2022-09-07T23:41:28.862Z,100887.69
2022-09-07T23:43:55.933Z,100889.63
2022-09-07T23:46:23.079Z,100889.63
2022-09-07T23:48:50.393Z,100884.13
2022-09-07T23:51:21.513Z,100886.03
2022-09-07T23:53:49.824Z,100879.75
2022-09-07T23:56:16.331Z,100880.53
2022-09-07T23:58:43.124Z,100877.00
